Terminal Aerodrome Forecast
Issued by NWS

Home | Current Version | Previous Version | Graphics & Text | Print | Product List | Glossary On
Versions: 1 2 3 4 5 6 7 8 9 10 11 12 13 14 15 16 17 18 19
000
FTUS43 KTOP 310714 AAB
TAFFOE
TAF AMD
KFOE 310714Z 3107/0106 04004KT P6SM -SHRA VCTS SCT019 BKN035CB
     FM311000 04004KT P6SM SCT008 BKN050
     FM311500 01006KT P6SM VCTS SCT015 BKN040CB
     FM312000 02005KT P6SM BKN040=

USA.gov is the U.S. government's official web portal to all federal, state and local government web resources and services.